createdAt,value
2018-02-17T00:00:04.836Z,-1.00
2018-02-17T00:02:33.304Z,-1.20
2018-02-17T00:05:01.636Z,-1.30
2018-02-17T00:07:29.967Z,-1.30
2018-02-17T00:09:59.024Z,-1.10
2018-02-17T00:12:27.353Z,-1.10
2018-02-17T00:14:55.744Z,-1.10
2018-02-17T00:17:24.068Z,-1.10
2018-02-17T00:19:53.333Z,-1.10
2018-02-17T00:22:21.681Z,-1.10
2018-02-17T00:24:50.012Z,-1.20
2018-02-17T00:27:19.352Z,-1.30
2018-02-17T00:29:47.676Z,-1.20
2018-02-17T00:32:16.763Z,-1.20
2018-02-17T00:34:45.120Z,-1.30
2018-02-17T00:37:13.817Z,-1.40
2018-02-17T00:39:42.189Z,-1.40
2018-02-17T00:42:10.523Z,-1.50
2018-02-17T00:44:38.897Z,-1.40
2018-02-17T00:47:07.259Z,-1.30
2018-02-17T00:49:36.356Z,-1.00
2018-02-17T00:52:05.553Z,-0.90
2018-02-17T00:54:33.880Z,-0.90
2018-02-17T00:57:02.736Z,-0.70
2018-02-17T00:59:31.128Z,-0.80
2018-02-17T01:01:59.472Z,-1.10
2018-02-17T01:04:27.800Z,-1.20
2018-02-17T01:06:56.154Z,-1.30
2018-02-17T01:09:25.580Z,-1.50
2018-02-17T01:11:53.930Z,-1.50
2018-02-17T01:14:22.319Z,-1.60
2018-02-17T01:16:50.656Z,-1.70
2018-02-17T01:19:18.985Z,-1.60
2018-02-17T01:21:47.346Z,-1.50
2018-02-17T01:24:15.720Z,-1.50
2018-02-17T01:26:44.051Z,-1.60
2018-02-17T01:29:14.097Z,-1.70
2018-02-17T01:31:42.426Z,-1.70
2018-02-17T01:34:10.765Z,-1.20
2018-02-17T01:36:39.116Z,-1.30
2018-02-17T01:39:07.966Z,-1.40
2018-02-17T01:41:36.368Z,-1.60
2018-02-17T01:44:04.711Z,-1.50
2018-02-17T01:46:33.316Z,-1.60
2018-02-17T01:49:01.733Z,-1.60
2018-02-17T01:51:30.073Z,-1.80
2018-02-17T01:53:58.487Z,-1.90
2018-02-17T01:56:27.641Z,-1.70
2018-02-17T01:58:56.853Z,-1.30
2018-02-17T02:01:25.241Z,-1.30
2018-02-17T02:03:53.604Z,-1.10
2018-02-17T02:06:21.971Z,-0.90
2018-02-17T02:08:51.184Z,-0.80
2018-02-17T02:11:19.525Z,-0.90
2018-02-17T02:13:49.042Z,-1.10
2018-02-17T02:16:17.422Z,-1.10
2018-02-17T02:18:45.769Z,-1.10
2018-02-17T02:21:14.284Z,-1.00
2018-02-17T02:23:43.403Z,-0.80
2018-02-17T02:26:12.520Z,-0.90
2018-02-17T02:28:40.880Z,-0.90
2018-02-17T02:31:09.325Z,-1.10
2018-02-17T02:33:37.732Z,-1.30
2018-02-17T02:36:06.832Z,-1.80
2018-02-17T02:38:35.161Z,-1.80
2018-02-17T02:41:03.553Z,-1.70
2018-02-17T02:43:32.349Z,-1.70
2018-02-17T02:46:00.681Z,-1.70
2018-02-17T02:48:29.581Z,-1.70
2018-02-17T02:50:57.914Z,-1.10
2018-02-17T02:53:26.473Z,-0.90
2018-02-17T02:55:54.821Z,-1.00
2018-02-17T02:58:23.158Z,-1.10
2018-02-17T03:00:52.273Z,-0.70
2018-02-17T03:03:20.597Z,-0.70
2018-02-17T03:05:48.971Z,-0.50
2018-02-17T03:08:17.320Z,-0.40
2018-02-17T03:10:45.930Z,-0.50
2018-02-17T03:13:21.104Z,-0.60
2018-02-17T03:15:49.435Z,-0.70
2018-02-17T03:18:17.786Z,-0.60
2018-02-17T03:20:47.756Z,-0.70
2018-02-17T03:23:16.133Z,-0.70
2018-02-17T03:25:44.457Z,-0.70
2018-02-17T03:28:13.056Z,-0.70
2018-02-17T03:30:41.406Z,-0.50
2018-02-17T03:33:10.504Z,-0.50
2018-02-17T03:35:39.616Z,-0.50
2018-02-17T03:38:07.940Z,-0.50
2018-02-17T03:40:36.365Z,-0.50
2018-02-17T03:43:05.183Z,-0.30
2018-02-17T03:45:33.505Z,0.10
2018-02-17T03:48:01.852Z,0.30
2018-02-17T03:50:30.884Z,0.50
2018-02-17T03:52:59.699Z,0.40
2018-02-17T03:55:28.015Z,0.40
2018-02-17T03:57:56.357Z,0.40
2018-02-17T04:00:24.717Z,0.30
2018-02-17T04:02:53.063Z,0.30
2018-02-17T04:05:21.392Z,0.40
2018-02-17T04:07:49.752Z,0.40
2018-02-17T04:10:18.076Z,0.40
2018-02-17T04:12:46.452Z,0.30
2018-02-17T04:15:14.776Z,0.10
2018-02-17T04:17:43.114Z,0.20
2018-02-17T04:20:11.472Z,0.10
2018-02-17T04:22:39.792Z,0.20
2018-02-17T04:25:08.124Z,0.50
2018-02-17T04:27:36.499Z,0.50
2018-02-17T04:30:04.913Z,0.50
2018-02-17T04:32:33.247Z,0.60
2018-02-17T04:35:01.640Z,0.60
2018-02-17T04:37:30.265Z,0.40
2018-02-17T04:40:04.212Z,0.40
2018-02-17T04:42:34.923Z,0.30
2018-02-17T04:45:04.164Z,0.30
2018-02-17T05:01:19.224Z,0.60
2018-02-17T05:03:47.567Z,0.70
2018-02-17T05:06:26.690Z,0.80
2018-02-17T05:08:56.768Z,0.70
2018-02-17T05:11:25.104Z,0.70
2018-02-17T05:13:53.444Z,0.70
2018-02-17T05:16:26.504Z,0.50
2018-02-17T05:19:05.660Z,0.40
2018-02-17T05:21:33.999Z,0.30
2018-02-17T05:37:28.804Z,0.60
2018-02-17T05:40:01.528Z,0.60
2018-02-17T05:42:31.567Z,0.50
2018-02-17T05:45:01.624Z,0.50
2018-02-17T05:47:32.242Z,0.70
2018-02-17T05:50:00.559Z,0.60
2018-02-17T05:52:29.099Z,0.60
2018-02-17T05:54:58.227Z,0.90
2018-02-17T05:57:26.565Z,0.90
2018-02-17T05:59:55.380Z,1.10
2018-02-17T06:02:23.816Z,1.00
2018-02-17T06:04:52.883Z,0.90
2018-02-17T06:07:21.212Z,0.80
2018-02-17T06:09:50.780Z,0.90
2018-02-17T06:12:19.100Z,0.70
2018-02-17T06:14:47.546Z,0.80
2018-02-17T06:17:15.903Z,0.90
2018-02-17T06:19:44.995Z,1.10
2018-02-17T06:22:13.307Z,1.10
2018-02-17T06:24:41.659Z,1.10
2018-02-17T06:27:10.446Z,0.90
2018-02-17T06:29:39.523Z,0.90
2018-02-17T06:32:07.888Z,0.90
2018-02-17T06:34:36.199Z,0.90
2018-02-17T06:37:04.511Z,1.10
2018-02-17T06:39:32.868Z,1.10
2018-02-17T06:42:01.964Z,0.90
2018-02-17T06:44:30.281Z,0.80
2018-02-17T06:46:58.631Z,0.70
2018-02-17T06:49:26.963Z,0.70
2018-02-17T06:51:55.309Z,0.80
2018-02-17T06:54:24.143Z,0.90
2018-02-17T06:56:53.959Z,0.90
2018-02-17T06:59:22.267Z,0.80
2018-02-17T07:01:50.684Z,0.80
2018-02-17T07:04:19.015Z,0.70
2018-02-17T07:06:47.349Z,0.70
2018-02-17T07:09:15.729Z,0.80
2018-02-17T07:11:43.804Z,0.80
2018-02-17T07:14:12.133Z,0.90
2018-02-17T07:16:41.434Z,0.90
2018-02-17T07:19:09.753Z,0.90
2018-02-17T07:21:38.068Z,0.90
2018-02-17T07:24:06.710Z,1.10
2018-02-17T07:26:35.028Z,1.40
2018-02-17T07:29:04.101Z,1.50
2018-02-17T07:31:32.451Z,1.50
2018-02-17T07:34:01.276Z,1.50
2018-02-17T07:36:30.356Z,1.60
2018-02-17T07:38:58.722Z,1.60
2018-02-17T07:41:27.805Z,1.70
2018-02-17T07:43:56.324Z,1.60
2018-02-17T07:46:24.681Z,1.60
2018-02-17T07:48:53.000Z,1.60
2018-02-17T07:51:21.319Z,1.60
2018-02-17T07:53:50.114Z,1.60
2018-02-17T07:56:18.420Z,1.70
2018-02-17T07:58:46.808Z,1.80
2018-02-17T08:01:15.166Z,1.50
2018-02-17T08:03:43.581Z,1.50
2018-02-17T08:06:11.907Z,1.80
2018-02-17T08:08:40.244Z,1.60
2018-02-17T08:11:09.321Z,1.80
2018-02-17T08:13:38.412Z,2.00
2018-02-17T08:16:07.535Z,2.00
2018-02-17T08:18:35.857Z,2.00
2018-02-17T08:21:04.173Z,2.00
2018-02-17T08:23:32.804Z,2.00
2018-02-17T08:26:01.120Z,1.80
2018-02-17T08:28:29.500Z,1.80
2018-02-17T08:30:57.868Z,1.90
2018-02-17T08:33:26.180Z,2.10
2018-02-17T08:35:55.312Z,2.10
2018-02-17T08:38:23.669Z,2.20
2018-02-17T08:40:52.468Z,2.30
2018-02-17T08:43:20.775Z,2.10
2018-02-17T08:45:49.132Z,2.20
2018-02-17T08:48:17.443Z,2.30
2018-02-17T08:50:45.761Z,2.50
2018-02-17T08:53:14.116Z,2.60
2018-02-17T08:55:43.868Z,2.60
2018-02-17T08:58:12.184Z,2.60
2018-02-17T09:00:40.575Z,2.50
2018-02-17T09:03:08.894Z,2.50
2018-02-17T09:05:37.201Z,2.40
2018-02-17T09:08:05.573Z,2.50
2018-02-17T09:10:47.394Z,2.70
2018-02-17T09:13:15.830Z,2.60
2018-02-17T09:15:44.144Z,2.50
2018-02-17T09:18:12.217Z,2.50
2018-02-17T09:20:43.784Z,2.60
2018-02-17T09:23:12.160Z,2.90
2018-02-17T09:25:40.492Z,2.80
2018-02-17T09:28:08.852Z,2.50
2018-02-17T09:30:37.157Z,2.50
2018-02-17T09:33:05.460Z,2.80
2018-02-17T09:35:34.430Z,2.80
2018-02-17T09:38:02.735Z,3.00
2018-02-17T09:40:31.043Z,3.10
2018-02-17T09:43:00.168Z,3.30
2018-02-17T09:45:28.468Z,3.30
2018-02-17T09:47:56.778Z,3.40
2018-02-17T09:50:25.392Z,3.40
2018-02-17T09:52:53.725Z,3.20
2018-02-17T09:55:22.038Z,3.30
2018-02-17T09:57:50.427Z,3.30
2018-02-17T10:00:19.521Z,3.30
2018-02-17T10:02:47.824Z,3.40
2018-02-17T10:05:16.176Z,3.60
2018-02-17T10:07:44.488Z,3.50
2018-02-17T10:10:14.009Z,3.30
2018-02-17T10:12:42.376Z,3.30
2018-02-17T10:15:10.692Z,3.50
2018-02-17T10:17:39.278Z,3.60
2018-02-17T10:20:07.649Z,3.50
2018-02-17T10:22:36.553Z,3.60
2018-02-17T10:25:04.858Z,3.40
2018-02-17T10:27:33.205Z,3.30
2018-02-17T10:30:01.528Z,3.40
2018-02-17T10:32:29.873Z,3.30
2018-02-17T10:34:58.736Z,3.40
2018-02-17T10:37:27.045Z,3.40
2018-02-17T10:39:55.592Z,3.30
2018-02-17T10:42:25.035Z,2.80
2018-02-17T10:44:53.348Z,2.80
2018-02-17T10:47:21.712Z,2.80
2018-02-17T10:49:50.032Z,3.00
2018-02-17T10:52:18.340Z,3.00
2018-02-17T10:54:46.776Z,2.90
2018-02-17T10:57:15.461Z,2.90
2018-02-17T10:59:43.964Z,2.50
2018-02-17T11:02:12.336Z,2.30
2018-02-17T11:04:40.652Z,2.20
2018-02-17T11:07:08.971Z,2.10
2018-02-17T11:09:37.892Z,2.20
2018-02-17T11:12:06.272Z,2.00
2018-02-17T11:14:34.595Z,2.00
2018-02-17T11:17:02.961Z,1.60
2018-02-17T11:19:31.280Z,1.40
2018-02-17T11:21:59.610Z,1.30
2018-02-17T11:24:27.980Z,1.20
2018-02-17T11:26:56.318Z,1.00
2018-02-17T11:29:24.627Z,1.00
2018-02-17T11:31:54.152Z,0.90
2018-02-17T11:34:22.496Z,0.90
2018-02-17T11:36:50.806Z,0.90
2018-02-17T11:39:19.175Z,0.90
2018-02-17T11:41:48.261Z,0.80
2018-02-17T11:44:17.340Z,0.70
2018-02-17T11:46:45.687Z,0.70
2018-02-17T11:49:13.995Z,0.70
2018-02-17T11:51:42.312Z,0.70
2018-02-17T11:54:11.456Z,0.50
2018-02-17T11:56:39.768Z,0.50
2018-02-17T11:59:08.096Z,0.50
2018-02-17T12:01:36.517Z,0.70
2018-02-17T12:04:05.805Z,0.50
2018-02-17T12:06:34.893Z,0.60
2018-02-17T12:09:03.268Z,0.60
2018-02-17T12:11:31.582Z,0.80
2018-02-17T12:13:59.912Z,0.90
2018-02-17T12:16:28.285Z,0.70
2018-02-17T12:18:56.620Z,0.60
2018-02-17T12:21:24.965Z,0.60
2018-02-17T12:23:53.349Z,0.60
2018-02-17T12:26:21.665Z,0.80
2018-02-17T12:28:49.987Z,1.00
2018-02-17T12:31:18.344Z,0.90
2018-02-17T12:33:46.660Z,0.80
2018-02-17T12:36:14.967Z,0.90
2018-02-17T12:38:43.328Z,1.00
2018-02-17T12:41:12.408Z,1.00
2018-02-17T12:43:41.641Z,1.00
2018-02-17T12:46:10.012Z,0.80
2018-02-17T12:48:38.333Z,0.80
2018-02-17T12:51:06.644Z,0.80
2018-02-17T12:53:35.012Z,0.80
2018-02-17T12:56:03.332Z,0.70
2018-02-17T12:58:31.646Z,0.70
2018-02-17T13:01:00.050Z,0.60
2018-02-17T13:03:28.388Z,0.60
2018-02-17T13:05:56.716Z,0.60
2018-02-17T13:08:25.069Z,0.70
2018-02-17T13:10:53.384Z,0.80
2018-02-17T13:13:21.708Z,0.90
2018-02-17T13:15:50.537Z,1.00
2018-02-17T13:18:19.629Z,1.10
2018-02-17T13:20:47.948Z,1.10
2018-02-17T13:23:16.868Z,1.10
2018-02-17T13:25:46.328Z,1.00
2018-02-17T13:28:25.293Z,0.90
2018-02-17T13:30:53.608Z,0.90
2018-02-17T13:33:21.942Z,1.00
2018-02-17T13:35:50.336Z,1.20
2018-02-17T13:38:18.664Z,1.00
2018-02-17T13:40:47.004Z,1.20
2018-02-17T13:43:15.358Z,1.20
2018-02-17T13:45:43.436Z,1.20
2018-02-17T13:48:11.753Z,1.20
2018-02-17T13:50:40.220Z,1.20
2018-02-17T13:53:08.536Z,1.00
2018-02-17T13:55:36.852Z,0.90
2018-02-17T13:58:05.237Z,0.90
2018-02-17T14:00:33.552Z,1.00
2018-02-17T14:03:01.866Z,0.90
2018-02-17T14:05:30.234Z,0.90
2018-02-17T14:07:59.081Z,0.90
2018-02-17T14:10:27.519Z,0.80
2018-02-17T14:12:55.849Z,0.70
2018-02-17T14:15:24.936Z,0.70
2018-02-17T14:17:53.254Z,0.70
2018-02-17T14:20:21.612Z,0.60
2018-02-17T14:22:49.925Z,0.60
2018-02-17T14:25:18.248Z,0.60
2018-02-17T14:27:46.584Z,0.60
2018-02-17T14:30:14.942Z,0.70
2018-02-17T14:32:43.312Z,0.80
2018-02-17T14:35:11.640Z,0.80
2018-02-17T14:37:40.140Z,0.90
2018-02-17T14:40:08.550Z,0.90
2018-02-17T14:42:36.907Z,1.00
2018-02-17T14:45:05.229Z,1.00
2018-02-17T14:47:33.600Z,1.00
2018-02-17T14:50:01.912Z,0.90
2018-02-17T14:52:30.237Z,0.90
2018-02-17T14:54:58.912Z,0.90
2018-02-17T14:57:27.220Z,0.90
2018-02-17T14:59:55.540Z,1.00
2018-02-17T15:02:23.988Z,0.90
2018-02-17T15:04:52.733Z,0.80
2018-02-17T15:07:21.072Z,0.80
2018-02-17T15:09:49.435Z,0.80
2018-02-17T15:12:17.868Z,0.70
2018-02-17T15:14:46.190Z,0.70
2018-02-17T15:17:16.140Z,0.60
2018-02-17T15:19:44.452Z,0.50
2018-02-17T15:22:13.754Z,0.50
2018-02-17T15:24:42.213Z,0.40
2018-02-17T15:30:21.268Z,0.60
2018-02-17T15:32:51.514Z,0.50
2018-02-17T15:35:20.004Z,0.50
2018-02-17T15:37:48.320Z,0.60
2018-02-17T15:40:17.324Z,0.60
2018-02-17T15:42:45.656Z,0.60
2018-02-17T15:45:14.040Z,0.70
2018-02-17T15:47:42.524Z,0.70
2018-02-17T15:50:11.075Z,0.60
2018-02-17T15:52:40.044Z,0.60
2018-02-17T15:55:09.578Z,0.60
2018-02-17T15:57:38.303Z,0.60
2018-02-17T16:00:07.056Z,0.50
2018-02-17T16:02:35.696Z,0.50
2018-02-17T16:05:05.504Z,0.60
2018-02-17T16:07:36.171Z,0.60
2018-02-17T16:10:05.423Z,0.50
2018-02-17T16:12:35.138Z,0.50
2018-02-17T16:15:03.692Z,0.50
2018-02-17T16:17:32.360Z,0.50
2018-02-17T16:20:01.127Z,0.60
2018-02-17T16:22:31.168Z,0.60
2018-02-17T16:25:00.260Z,0.50
2018-02-17T16:30:29.729Z,0.50
2018-02-17T16:32:58.534Z,0.50
2018-02-17T16:35:27.289Z,0.40
2018-02-17T17:16:56.843Z,0.30
2018-02-17T17:19:26.130Z,0.30
2018-02-17T17:21:54.729Z,0.30
2018-02-17T17:24:23.250Z,0.30
2018-02-17T17:26:51.890Z,0.30
2018-02-17T17:29:20.424Z,0.30
2018-02-17T17:31:48.986Z,0.40
2018-02-17T17:34:17.707Z,0.30
2018-02-17T17:36:46.892Z,0.30
2018-02-17T17:39:16.139Z,0.30
2018-02-17T17:41:44.774Z,0.30
2018-02-17T17:44:13.326Z,0.30
2018-02-17T17:46:41.950Z,0.30
2018-02-17T17:49:10.497Z,0.30
2018-02-17T17:51:39.129Z,0.30
2018-02-17T17:54:07.642Z,0.30
2018-02-17T17:56:36.239Z,0.30
2018-02-17T17:59:04.818Z,0.30
2018-02-17T18:01:33.584Z,0.30
2018-02-17T18:04:02.315Z,0.30
2018-02-17T18:06:30.901Z,0.20
2018-02-17T18:08:59.701Z,0.20
2018-02-17T18:11:28.643Z,0.20
2018-02-17T18:13:57.179Z,0.20
2018-02-17T18:16:27.033Z,0.20
2018-02-17T18:18:55.543Z,0.20
2018-02-17T18:21:24.165Z,0.20
2018-02-17T18:23:53.153Z,0.20
2018-02-17T18:26:21.722Z,0.20
2018-02-17T18:28:50.892Z,0.20
2018-02-17T18:31:19.580Z,0.20
2018-02-17T18:33:48.101Z,0.20
2018-02-17T18:36:16.843Z,0.20
2018-02-17T18:38:45.470Z,0.20
2018-02-17T18:41:15.420Z,0.20
2018-02-17T18:43:43.948Z,0.20
2018-02-17T18:46:12.587Z,0.10
2018-02-17T18:48:41.082Z,0.10
2018-02-17T18:51:09.628Z,0.10
2018-02-17T18:53:38.582Z,0.10
2018-02-17T18:56:07.674Z,0.10
2018-02-17T18:58:36.024Z,0.10
2018-02-17T19:01:05.009Z,0.00
2018-02-17T19:03:33.638Z,0.00
2018-02-17T19:06:02.136Z,0.00
2018-02-17T19:08:31.938Z,0.00
2018-02-17T19:11:00.869Z,0.00
2018-02-17T19:13:29.570Z,0.00
2018-02-17T19:15:58.133Z,0.00
2018-02-17T19:18:26.691Z,0.00
2018-02-17T19:20:55.459Z,0.00
2018-02-17T19:23:25.271Z,0.00
2018-02-17T19:25:54.130Z,0.00
2018-02-17T19:28:23.231Z,0.00
2018-02-17T19:30:52.416Z,0.00
2018-02-17T19:33:21.653Z,0.00
2018-02-17T19:35:50.986Z,0.00
2018-02-17T19:38:19.778Z,0.00
2018-02-17T19:40:48.872Z,0.00
2018-02-17T19:43:18.032Z,0.00
2018-02-17T19:45:46.553Z,0.00
2018-02-17T19:48:15.416Z,0.00
2018-02-17T19:50:44.551Z,0.00
2018-02-17T19:53:13.592Z,0.10
2018-02-17T19:55:43.357Z,0.00
2018-02-17T19:58:11.955Z,0.00
2018-02-17T20:00:40.540Z,0.00
2018-02-17T20:03:09.011Z,0.00
2018-02-17T20:05:38.086Z,0.00
2018-02-17T20:08:08.073Z,0.00
2018-02-17T20:10:37.268Z,0.00
2018-02-17T20:13:05.807Z,0.00
2018-02-17T20:15:34.490Z,0.00
2018-02-17T20:18:03.030Z,0.00
2018-02-17T20:20:31.899Z,0.00
2018-02-17T20:23:00.483Z,0.00
2018-02-17T20:25:29.024Z,0.00
2018-02-17T20:27:57.909Z,0.00
2018-02-17T20:30:26.462Z,0.00
2018-02-17T20:32:55.050Z,0.00
2018-02-17T20:35:25.732Z,0.10
2018-02-17T20:37:55.918Z,0.00
2018-02-17T20:40:24.814Z,0.00
2018-02-17T20:42:53.203Z,0.00
2018-02-17T20:45:22.142Z,0.00
2018-02-17T20:47:51.637Z,0.00
2018-02-17T20:50:21.177Z,0.00
2018-02-17T20:52:49.618Z,0.00
2018-02-17T20:55:17.987Z,0.00
2018-02-17T20:57:46.775Z,0.00
2018-02-17T21:00:15.225Z,0.00
2018-02-17T21:02:44.063Z,0.00
2018-02-17T21:05:13.525Z,0.00
2018-02-17T21:07:42.283Z,0.00
2018-02-17T21:10:11.162Z,-0.10
2018-02-17T21:12:41.379Z,0.00
2018-02-17T21:15:09.909Z,0.00
2018-02-17T21:17:38.407Z,0.00
2018-02-17T21:20:07.124Z,-0.10
2018-02-17T21:22:35.728Z,0.00
2018-02-17T21:25:05.222Z,-0.10
2018-02-17T21:27:35.037Z,-0.10
2018-02-17T21:30:05.058Z,-0.10
2018-02-17T21:32:34.417Z,-0.10
2018-02-17T21:35:04.834Z,-0.10
2018-02-17T21:37:33.977Z,-0.10
2018-02-17T21:40:02.511Z,0.00
2018-02-17T21:42:30.938Z,0.00
2018-02-17T21:44:59.660Z,0.00
2018-02-17T21:47:28.602Z,0.00
2018-02-17T21:49:57.128Z,0.00
2018-02-17T21:52:25.751Z,0.00
2018-02-17T21:54:54.388Z,0.00
2018-02-17T21:57:23.827Z,0.00
2018-02-17T21:59:52.554Z,0.00
2018-02-17T22:02:21.480Z,0.00
2018-02-17T22:04:51.795Z,0.10
2018-02-17T22:07:20.623Z,0.00
2018-02-17T22:09:49.636Z,0.00
2018-02-17T22:12:18.734Z,0.00
2018-02-17T22:14:47.770Z,0.00
2018-02-17T22:17:17.047Z,0.00
2018-02-17T22:19:46.139Z,0.00
2018-02-17T22:22:14.804Z,0.00
2018-02-17T22:24:43.455Z,0.00
2018-02-17T22:27:11.915Z,0.00
2018-02-17T22:29:40.890Z,0.10
2018-02-17T22:32:10.360Z,0.00
2018-02-17T22:34:38.967Z,0.00
2018-02-17T22:37:07.580Z,0.00
2018-02-17T22:39:36.948Z,0.00
2018-02-17T22:42:05.518Z,0.00
2018-02-17T22:44:34.645Z,0.00
2018-02-17T22:47:03.686Z,0.00
2018-02-17T22:49:32.305Z,0.00
2018-02-17T22:52:04.972Z,0.10
2018-02-17T22:54:33.534Z,0.00
2018-02-17T22:57:04.220Z,0.00
2018-02-17T22:59:32.653Z,0.00
2018-02-17T23:02:02.198Z,0.00
2018-02-17T23:04:32.528Z,0.00
2018-02-17T23:07:03.639Z,0.00
2018-02-17T23:09:32.450Z,-0.10
2018-02-17T23:12:01.244Z,-0.10
2018-02-17T23:14:30.190Z,-0.10
2018-02-17T23:16:59.705Z,-0.10
2018-02-17T23:19:28.404Z,0.00
2018-02-17T23:21:57.371Z,0.00
2018-02-17T23:24:26.634Z,0.00
2018-02-17T23:26:55.558Z,-0.10
2018-02-17T23:29:24.021Z,-0.20
2018-02-17T23:31:52.639Z,-0.20
2018-02-17T23:34:22.294Z,-0.10
2018-02-17T23:36:51.296Z,-0.10
2018-02-17T23:39:19.794Z,-0.30
2018-02-17T23:41:48.424Z,-0.40
2018-02-17T23:44:16.955Z,-0.40
2018-02-17T23:46:45.561Z,-0.50
2018-02-17T23:49:14.408Z,-0.50
2018-02-17T23:51:43.498Z,-0.40
2018-02-17T23:54:12.172Z,-0.40
2018-02-17T23:56:40.752Z,-0.30
2018-02-17T23:59:09.289Z,-0.30
